createdAt,value
2018-06-03T00:02:26.566Z,20.93
2018-06-03T00:04:54.077Z,17.17
2018-06-03T00:07:21.558Z,16.23
2018-06-03T00:09:49.128Z,16.90
2018-06-03T00:12:16.588Z,16.93
2018-06-03T00:14:44.872Z,14.87
2018-06-03T00:17:12.349Z,15.83
2018-06-03T00:19:40.640Z,21.50
2018-06-03T00:22:09.590Z,16.17
2018-06-03T00:24:37.107Z,17.70
2018-06-03T00:27:05.296Z,19.10
2018-06-03T00:29:32.814Z,16.07
2018-06-03T00:32:00.310Z,14.30
2018-06-03T00:34:27.839Z,12.67
2018-06-03T00:36:56.864Z,12.27
2018-06-03T00:39:24.359Z,11.77
2018-06-03T00:41:51.861Z,11.17
2018-06-03T00:44:19.337Z,15.73
2018-06-03T00:46:46.841Z,12.60
2018-06-03T00:49:14.324Z,11.57
2018-06-03T00:51:42.606Z,12.07
2018-06-03T00:54:10.871Z,12.60
2018-06-03T00:56:51.059Z,13.27
2018-06-03T00:59:18.547Z,11.93
2018-06-03T01:01:46.054Z,11.63
2018-06-03T01:04:14.290Z,10.73
2018-06-03T01:06:41.796Z,13.23
2018-06-03T01:09:09.279Z,13.23
2018-06-03T01:11:36.793Z,11.83
2018-06-03T01:14:05.058Z,11.40
2018-06-03T01:16:33.341Z,13.13
2018-06-03T01:19:01.598Z,11.83
2018-06-03T01:21:29.097Z,13.90
2018-06-03T01:23:56.582Z,12.57
2018-06-03T01:26:24.104Z,12.87
2018-06-03T01:28:52.427Z,12.40
2018-06-03T01:31:19.946Z,12.50
2018-06-03T01:33:47.432Z,12.90
2018-06-03T01:36:14.925Z,11.13
2018-06-03T01:38:42.440Z,14.17
2018-06-03T01:41:09.923Z,12.33
2018-06-03T01:43:37.474Z,12.20
2018-06-03T01:46:04.964Z,12.07
2018-06-03T01:48:33.414Z,10.77
2018-06-03T01:51:00.950Z,12.73
2018-06-03T01:53:28.616Z,11.27
2018-06-03T01:55:56.139Z,11.70
2018-06-03T01:58:24.418Z,13.17
2018-06-03T02:00:52.674Z,10.03
2018-06-03T02:03:20.172Z,10.87
2018-06-03T02:05:47.659Z,11.37
2018-06-03T02:08:15.237Z,13.07
2018-06-03T02:10:42.729Z,11.97
2018-06-03T02:13:10.996Z,10.70
2018-06-03T02:15:39.242Z,12.17
2018-06-03T02:18:06.745Z,13.73
2018-06-03T02:20:34.992Z,11.37
2018-06-03T02:23:02.494Z,12.00
2018-06-03T02:25:29.982Z,12.97
2018-06-03T02:27:57.504Z,18.53
2018-06-03T02:30:24.992Z,14.57
2018-06-03T02:32:52.491Z,13.40
2018-06-03T02:35:20.008Z,14.93
2018-06-03T02:37:47.497Z,14.17
2018-06-03T02:40:15.014Z,11.27
2018-06-03T02:42:42.510Z,11.20
2018-06-03T02:45:10.016Z,12.20
2018-06-03T02:47:37.480Z,14.13
2018-06-03T02:50:04.997Z,12.07
2018-06-03T02:52:32.479Z,12.80
2018-06-03T02:55:00.738Z,11.27
2018-06-03T02:57:28.989Z,11.97
2018-06-03T02:59:56.491Z,12.57
2018-06-03T03:02:23.967Z,12.87
2018-06-03T03:04:51.471Z,13.93
2018-06-03T03:07:18.963Z,15.83
2018-06-03T03:09:47.251Z,18.63
2018-06-03T03:12:14.720Z,15.33
2018-06-03T03:14:42.254Z,13.10
2018-06-03T03:17:10.511Z,13.23
2018-06-03T03:19:37.986Z,13.10
2018-06-03T03:22:06.329Z,11.10
2018-06-03T03:24:33.803Z,10.53
2018-06-03T03:27:01.323Z,13.23
2018-06-03T03:29:28.800Z,10.67
2018-06-03T03:31:56.281Z,9.33
2018-06-03T03:34:24.532Z,10.37
2018-06-03T03:36:52.016Z,8.43
2018-06-03T03:39:20.268Z,12.20
2018-06-03T03:41:47.770Z,10.73
2018-06-03T03:44:15.255Z,11.53
2018-06-03T03:46:42.759Z,11.37
2018-06-03T03:49:10.231Z,11.30
2018-06-03T03:51:39.314Z,13.17
2018-06-03T03:54:06.784Z,10.23
2018-06-03T03:56:35.060Z,11.10
2018-06-03T03:59:03.305Z,11.90
2018-06-03T04:01:30.840Z,14.37
2018-06-03T04:04:29.768Z,11.57
2018-06-03T04:06:58.159Z,15.13
2018-06-03T04:09:26.528Z,11.97
2018-06-03T04:11:54.940Z,12.20
2018-06-03T04:14:23.315Z,11.47
2018-06-03T04:16:51.671Z,11.37
2018-06-03T04:19:20.031Z,11.37
2018-06-03T04:21:48.403Z,11.57
2018-06-03T04:24:17.091Z,13.03
2018-06-03T04:26:45.469Z,13.77
2018-06-03T04:29:13.807Z,12.93
2018-06-03T04:31:42.161Z,12.07
2018-06-03T04:34:10.521Z,11.50
2018-06-03T04:36:38.851Z,11.13
2018-06-03T04:39:07.219Z,11.70
2018-06-03T04:41:35.565Z,9.87
2018-06-03T04:44:03.941Z,10.07
2018-06-03T04:46:32.279Z,12.13
2018-06-03T04:49:00.632Z,10.60
2018-06-03T04:51:28.988Z,11.93
2018-06-03T04:53:57.097Z,12.33
2018-06-03T04:56:25.445Z,10.63
2018-06-03T04:58:53.789Z,10.37
2018-06-03T05:01:22.123Z,10.90
2018-06-03T05:03:50.458Z,12.30
2018-06-03T05:06:18.820Z,11.07
2018-06-03T05:08:47.207Z,10.33
2018-06-03T05:11:15.594Z,9.77
2018-06-03T05:13:44.187Z,10.07
2018-06-03T05:16:12.248Z,11.23
2018-06-03T05:18:40.579Z,9.80
2018-06-03T05:21:08.946Z,9.77
2018-06-03T05:23:37.266Z,9.60
2018-06-03T05:26:05.609Z,9.57
2018-06-03T05:28:34.000Z,8.83
2018-06-03T05:31:02.347Z,8.80
2018-06-03T05:33:30.709Z,9.13
2018-06-03T05:35:58.838Z,9.60
2018-06-03T05:38:27.188Z,9.00
2018-06-03T05:40:55.539Z,9.80
2018-06-03T05:43:23.866Z,9.10
2018-06-03T05:45:52.248Z,9.10
2018-06-03T05:48:20.614Z,8.37
2018-06-03T05:50:49.066Z,8.37
2018-06-03T05:53:17.424Z,9.27
2018-06-03T05:55:45.815Z,7.57
2018-06-03T05:58:14.170Z,9.03
2018-06-03T06:00:42.558Z,8.03
2018-06-03T06:03:10.888Z,6.50
2018-06-03T06:05:39.308Z,7.10
2018-06-03T06:08:07.706Z,6.60
2018-06-03T06:10:36.078Z,7.00
2018-06-03T06:13:04.422Z,6.40
2018-06-03T06:15:32.781Z,6.17
2018-06-03T06:18:01.113Z,7.67
2018-06-03T06:20:29.507Z,7.77
2018-06-03T06:22:57.867Z,6.80
2018-06-03T06:25:26.229Z,7.23
2018-06-03T06:27:54.662Z,5.70
2018-06-03T06:30:23.046Z,6.40
2018-06-03T06:32:51.462Z,5.70
2018-06-03T06:35:19.893Z,5.67
2018-06-03T06:37:48.322Z,5.33
2018-06-03T06:40:16.669Z,5.20
2018-06-03T06:42:45.026Z,8.60
2018-06-03T06:45:13.410Z,5.13
2018-06-03T06:47:41.801Z,4.90
2018-06-03T06:50:10.212Z,5.43
2018-06-03T06:52:38.582Z,4.20
2018-06-03T06:55:06.937Z,4.93
2018-06-03T06:57:35.615Z,4.40
2018-06-03T07:00:04.041Z,3.90
2018-06-03T07:02:32.419Z,13.57
2018-06-03T07:05:00.872Z,6.83
2018-06-03T07:07:29.338Z,6.25
2018-06-03T07:09:57.775Z,5.45
2018-06-03T07:12:26.102Z,3.42
2018-06-03T07:14:54.497Z,3.42
2018-06-03T07:17:22.849Z,4.87
2018-06-03T07:19:51.255Z,3.45
2018-06-03T07:22:19.661Z,4.87
2018-06-03T07:24:48.019Z,3.90
2018-06-03T07:27:16.399Z,3.08
2018-06-03T07:29:44.793Z,3.83
2018-06-03T07:32:13.166Z,3.12
2018-06-03T07:34:41.582Z,2.87
2018-06-03T07:37:10.231Z,2.90
2018-06-03T07:39:38.609Z,3.20
2018-06-03T07:42:07.039Z,3.55
2018-06-03T07:44:35.427Z,3.12
2018-06-03T07:47:03.812Z,3.75
2018-06-03T07:49:32.163Z,3.02
2018-06-03T07:52:00.610Z,3.42
2018-06-03T07:54:29.087Z,4.00
2018-06-03T07:56:57.493Z,3.22
2018-06-03T07:59:25.886Z,3.17
2018-06-03T08:01:54.291Z,5.85
2018-06-03T08:04:22.651Z,4.00
2018-06-03T08:06:51.380Z,4.22
2018-06-03T08:09:19.811Z,3.12
2018-06-03T08:11:47.953Z,4.03
2018-06-03T08:14:16.429Z,3.72
2018-06-03T08:16:44.831Z,3.17
2018-06-03T08:19:13.185Z,2.08
2018-06-03T08:21:41.547Z,2.52
2018-06-03T08:24:10.507Z,2.60
2018-06-03T08:26:38.928Z,2.30
2018-06-03T08:29:07.372Z,2.37
2018-06-03T08:31:35.803Z,2.25
2018-06-03T08:34:04.256Z,2.45
2018-06-03T08:36:32.599Z,2.98
2018-06-03T08:39:01.015Z,2.00
2018-06-03T08:41:29.427Z,3.05
2018-06-03T08:43:57.833Z,2.40
2018-06-03T08:46:26.269Z,2.90
2018-06-03T08:48:54.712Z,2.00
2018-06-03T08:51:23.093Z,2.70
2018-06-03T08:53:51.534Z,2.80
2018-06-03T08:56:19.894Z,2.27
2018-06-03T08:58:48.284Z,2.47
2018-06-03T09:01:16.676Z,2.85
2018-06-03T09:03:45.076Z,2.02
2018-06-03T09:06:13.470Z,2.20
2018-06-03T09:08:41.887Z,1.95
2018-06-03T09:11:10.317Z,2.87
2018-06-03T09:13:38.667Z,1.95
2018-06-03T09:16:07.117Z,2.17
2018-06-03T09:18:35.509Z,2.50
2018-06-03T09:21:03.995Z,2.27
2018-06-03T09:23:32.353Z,1.80
2018-06-03T09:26:00.775Z,2.02
2018-06-03T09:28:29.122Z,2.17
2018-06-03T09:31:03.011Z,2.72
2018-06-03T09:33:31.388Z,2.10
2018-06-03T09:35:59.845Z,1.90
2018-06-03T09:38:28.181Z,2.00
2018-06-03T09:40:56.613Z,1.98
2018-06-03T09:43:25.000Z,2.60
2018-06-03T09:45:53.459Z,2.65
2018-06-03T09:48:21.833Z,1.80
2018-06-03T09:50:50.267Z,1.90
2018-06-03T09:53:18.717Z,2.17
2018-06-03T09:55:47.021Z,1.85
2018-06-03T09:58:15.416Z,2.35
2018-06-03T10:00:43.532Z,2.12
2018-06-03T10:03:11.832Z,1.98
2018-06-03T10:05:40.182Z,2.20
2018-06-03T10:08:08.633Z,2.33
2018-06-03T10:10:36.738Z,4.25
2018-06-03T10:13:05.162Z,3.33
2018-06-03T10:15:33.568Z,2.85
2018-06-03T10:18:01.696Z,2.95
2018-06-03T10:20:30.134Z,2.00
2018-06-03T10:22:58.524Z,2.10
2018-06-03T10:25:26.982Z,2.10
2018-06-03T10:27:55.412Z,2.12
2018-06-03T10:30:23.813Z,2.25
2018-06-03T10:32:52.263Z,2.05
2018-06-03T10:35:20.672Z,2.27
2018-06-03T10:37:49.130Z,1.62
2018-06-03T10:40:17.754Z,3.40
2018-06-03T10:42:46.346Z,2.20
2018-06-03T10:45:14.848Z,1.70
2018-06-03T10:47:43.268Z,3.15
2018-06-03T10:50:11.678Z,3.72
2018-06-03T10:52:40.083Z,1.87
2018-06-03T10:55:08.517Z,2.50
2018-06-03T10:57:36.886Z,2.40
2018-06-03T11:00:05.747Z,2.20
2018-06-03T11:02:34.136Z,2.00
2018-06-03T11:05:02.631Z,2.33
2018-06-03T11:07:31.100Z,1.90
2018-06-03T11:09:59.485Z,2.85
2018-06-03T11:12:27.851Z,2.87
2018-06-03T11:14:56.266Z,2.22
2018-06-03T11:17:24.668Z,2.00
2018-06-03T11:19:53.099Z,3.60
2018-06-03T11:22:21.521Z,2.52
2018-06-03T11:24:50.031Z,2.37
2018-06-03T11:27:19.503Z,3.50
2018-06-03T11:29:47.881Z,1.70
2018-06-03T11:32:16.226Z,1.80
2018-06-03T11:34:44.569Z,2.00
2018-06-03T11:37:12.937Z,2.40
2018-06-03T11:39:41.733Z,2.02
2018-06-03T11:42:10.157Z,3.05
2018-06-03T11:44:38.520Z,2.50
2018-06-03T11:47:06.916Z,3.27
2018-06-03T11:49:35.271Z,1.82
2018-06-03T11:52:03.673Z,2.90
2018-06-03T11:54:32.044Z,2.05
2018-06-03T11:57:01.819Z,2.08
2018-06-03T11:59:46.890Z,1.75
2018-06-03T12:02:17.729Z,2.25
2018-06-03T12:04:46.148Z,1.98
2018-06-03T12:07:14.637Z,2.17
2018-06-03T12:09:43.108Z,3.00
2018-06-03T12:12:11.973Z,2.10
2018-06-03T12:14:40.400Z,3.20
2018-06-03T12:17:08.763Z,3.30
2018-06-03T12:19:37.126Z,2.83
2018-06-03T12:22:05.531Z,3.52
2018-06-03T12:24:33.863Z,2.85
2018-06-03T12:27:02.234Z,2.87
2018-06-03T12:29:30.584Z,2.80
2018-06-03T12:31:59.009Z,4.40
2018-06-03T12:34:27.446Z,2.80
2018-06-03T12:36:55.824Z,2.50
2018-06-03T12:39:24.267Z,2.00
2018-06-03T12:41:52.774Z,2.20
2018-06-03T12:44:21.183Z,1.70
2018-06-03T12:46:49.261Z,1.82
2018-06-03T12:49:17.637Z,3.62
2018-06-03T12:51:46.014Z,3.58
2018-06-03T12:54:14.125Z,2.00
2018-06-03T12:56:42.530Z,2.00
2018-06-03T12:59:10.887Z,2.22
2018-06-03T13:01:39.657Z,2.72
2018-06-03T13:04:08.015Z,2.10
2018-06-03T13:06:36.405Z,2.47
2018-06-03T13:09:06.643Z,2.30
2018-06-03T13:11:35.021Z,2.10
2018-06-03T13:14:03.441Z,2.02
2018-06-03T13:16:31.812Z,2.83
2018-06-03T13:19:00.207Z,1.98
2018-06-03T13:21:28.569Z,2.42
2018-06-03T13:23:57.384Z,2.17
2018-06-03T13:26:25.477Z,3.25
2018-06-03T13:28:53.855Z,1.70
2018-06-03T13:31:22.332Z,1.80
2018-06-03T13:33:50.699Z,3.30
2018-06-03T13:36:19.122Z,3.83
2018-06-03T13:38:48.738Z,1.75
2018-06-03T13:41:17.174Z,2.42
2018-06-03T13:43:45.548Z,2.30
2018-06-03T13:46:13.958Z,1.50
2018-06-03T13:48:42.316Z,1.70
2018-06-03T13:51:10.740Z,2.67
2018-06-03T13:53:39.110Z,1.80
2018-06-03T13:56:07.467Z,1.87
2018-06-03T13:58:35.874Z,1.45
2018-06-03T14:01:04.298Z,1.90
2018-06-03T14:03:32.710Z,1.52
2018-06-03T14:06:01.082Z,2.35
2018-06-03T14:08:29.522Z,3.33
2018-06-03T14:10:57.887Z,1.80
2018-06-03T14:13:26.336Z,1.65
2018-06-03T14:15:54.744Z,1.70
2018-06-03T14:18:23.110Z,2.72
2018-06-03T14:20:51.457Z,2.55
2018-06-03T14:23:20.015Z,1.87
2018-06-03T14:25:48.377Z,2.90
2018-06-03T14:28:16.831Z,2.05
2018-06-03T14:30:45.237Z,2.37
2018-06-03T14:33:13.621Z,4.22
2018-06-03T14:35:41.953Z,1.87
2018-06-03T14:38:10.390Z,2.90
2018-06-03T14:40:38.441Z,1.60
2018-06-03T14:43:06.813Z,1.87
2018-06-03T14:45:35.193Z,3.37
2018-06-03T14:48:03.593Z,1.60
2018-06-03T14:50:32.048Z,1.40
2018-06-03T14:53:00.305Z,2.98
2018-06-03T14:55:28.665Z,1.82
2018-06-03T14:57:57.037Z,1.98
2018-06-03T15:00:25.441Z,2.80
2018-06-03T15:02:53.788Z,2.05
2018-06-03T15:05:22.184Z,2.10
2018-06-03T15:07:50.827Z,2.72
2018-06-03T15:10:19.207Z,2.72
2018-06-03T15:12:47.535Z,2.45
2018-06-03T15:15:24.148Z,3.60
2018-06-03T15:17:52.764Z,2.90
2018-06-03T15:20:24.635Z,3.40
2018-06-03T15:25:53.314Z,2.17
2018-06-03T15:28:22.112Z,3.27
2018-06-03T15:31:14.315Z,2.80
2018-06-03T15:39:41.863Z,1.98
2018-06-03T15:42:10.309Z,2.50
2018-06-03T15:44:38.719Z,1.62
2018-06-03T15:47:07.181Z,2.00
2018-06-03T15:49:35.284Z,3.30
2018-06-03T15:52:03.707Z,2.67
2018-06-03T15:54:32.121Z,2.47
2018-06-03T15:57:00.563Z,2.35
2018-06-03T15:59:28.942Z,2.40
2018-06-03T16:01:57.348Z,2.50
2018-06-03T16:04:25.700Z,2.92
2018-06-03T16:06:54.121Z,4.00
2018-06-03T16:09:22.516Z,3.08
2018-06-03T16:11:50.920Z,2.60
2018-06-03T16:14:19.327Z,2.33
2018-06-03T16:16:47.680Z,2.62
2018-06-03T16:19:16.120Z,3.45
2018-06-03T16:21:44.472Z,2.70
2018-06-03T16:24:12.879Z,2.58
2018-06-03T16:26:40.946Z,2.45
2018-06-03T16:29:09.352Z,2.20
2018-06-03T16:31:37.780Z,1.77
2018-06-03T16:34:06.136Z,3.35
2018-06-03T16:36:34.542Z,2.15
2018-06-03T16:39:02.908Z,1.87
2018-06-03T16:41:32.267Z,3.52
2018-06-03T16:44:00.690Z,2.00
2018-06-03T16:46:29.208Z,2.15
2018-06-03T16:48:57.778Z,3.15
2018-06-03T16:51:25.872Z,2.00
2018-06-03T16:53:54.326Z,2.47
2018-06-03T16:56:22.513Z,1.62
2018-06-03T16:58:50.999Z,2.22
2018-06-03T17:01:19.433Z,1.95
2018-06-03T17:03:48.171Z,2.20
2018-06-03T17:06:16.644Z,2.10
2018-06-03T17:08:45.065Z,3.72
2018-06-03T17:11:13.469Z,4.62
2018-06-03T17:13:41.825Z,2.75
2018-06-03T17:16:10.233Z,2.58
2018-06-03T17:18:38.606Z,2.00
2018-06-03T17:21:07.031Z,2.30
2018-06-03T17:23:35.416Z,4.85
2018-06-03T17:26:04.281Z,2.67
2018-06-03T17:28:32.680Z,2.80
2018-06-03T17:31:01.109Z,2.27
2018-06-03T17:33:29.598Z,2.45
2018-06-03T17:35:58.121Z,2.70
2018-06-03T17:38:26.554Z,2.02
2018-06-03T17:40:55.007Z,3.92
2018-06-03T17:43:23.434Z,2.55
2018-06-03T17:45:55.408Z,2.33
2018-06-03T17:48:24.470Z,3.50
2018-06-03T17:50:52.982Z,3.20
2018-06-03T17:53:21.081Z,3.00
2018-06-03T17:55:49.389Z,2.95
2018-06-03T17:58:17.949Z,2.83
2018-06-03T18:00:46.338Z,3.45
2018-06-03T18:03:14.787Z,2.72
2018-06-03T18:05:43.207Z,3.05
2018-06-03T18:08:11.737Z,2.95
2018-06-03T18:10:40.130Z,2.95
2018-06-03T18:13:08.546Z,3.30
2018-06-03T18:15:36.885Z,2.80
2018-06-03T18:18:05.306Z,3.33
2018-06-03T18:20:33.659Z,3.77
2018-06-03T18:23:02.073Z,2.30
2018-06-03T18:25:30.468Z,2.65
2018-06-03T18:27:58.882Z,3.05
2018-06-03T18:30:27.265Z,3.87
2018-06-03T18:32:55.797Z,3.75
2018-06-03T18:35:24.164Z,3.00
2018-06-03T18:37:52.647Z,4.33
2018-06-03T18:40:21.064Z,4.95
2018-06-03T18:42:50.439Z,2.72
2018-06-03T18:45:18.894Z,3.12
2018-06-03T18:47:47.263Z,2.75
2018-06-03T18:50:15.680Z,2.90
2018-06-03T18:52:44.117Z,3.77
2018-06-03T18:55:12.533Z,3.00
2018-06-03T18:57:40.909Z,2.50
2018-06-03T19:00:09.377Z,2.67
2018-06-03T19:02:37.731Z,2.98
2018-06-03T19:05:06.335Z,3.50
2018-06-03T19:07:34.719Z,3.15
2018-06-03T19:10:03.197Z,3.52
2018-06-03T19:12:31.680Z,3.17
2018-06-03T19:15:00.133Z,4.17
2018-06-03T19:17:28.532Z,3.92
2018-06-03T19:19:57.019Z,4.00
2018-06-03T19:22:25.481Z,7.45
2018-06-03T19:24:53.908Z,8.88
2018-06-03T19:27:22.323Z,8.55
2018-06-03T19:29:50.699Z,8.73
2018-06-03T19:32:19.071Z,8.00
2018-06-03T19:34:47.474Z,5.30
2018-06-03T19:37:15.866Z,5.10
2018-06-03T19:39:44.339Z,5.58
2018-06-03T19:42:12.745Z,6.03
2018-06-03T19:44:41.095Z,8.73
2018-06-03T19:47:09.517Z,13.73
2018-06-03T19:49:37.920Z,13.03
2018-06-03T19:52:06.373Z,16.10
2018-06-03T19:54:34.833Z,18.90
2018-06-03T19:57:03.489Z,18.37
2018-06-03T19:59:31.964Z,19.80
2018-06-03T20:02:00.351Z,17.87
2018-06-03T20:04:28.735Z,14.90
2018-06-03T20:06:57.156Z,14.43
2018-06-03T20:09:25.631Z,11.47
2018-06-03T20:11:54.050Z,8.87
2018-06-03T20:14:22.479Z,9.10
2018-06-03T20:16:51.019Z,7.70
2018-06-03T20:19:19.492Z,7.67
2018-06-03T20:21:47.913Z,7.40
2018-06-03T20:24:16.440Z,7.17
2018-06-03T20:26:44.530Z,14.43
2018-06-03T20:29:13.051Z,21.07
2018-06-03T20:31:41.505Z,20.60
2018-06-03T20:34:09.966Z,19.73
2018-06-03T20:36:38.038Z,13.93
2018-06-03T20:39:07.927Z,12.60
2018-06-03T20:41:36.300Z,8.47
2018-06-03T20:44:04.744Z,6.60
2018-06-03T20:46:33.173Z,8.63
2018-06-03T20:49:01.631Z,6.83
2018-06-03T20:51:30.063Z,6.20
2018-06-03T20:53:58.565Z,6.20
2018-06-03T20:56:27.036Z,6.83
2018-06-03T20:58:55.468Z,7.03
2018-06-03T21:01:23.947Z,5.03
2018-06-03T21:03:54.941Z,5.37
2018-06-03T21:06:23.344Z,5.93
2018-06-03T21:08:51.779Z,4.87
2018-06-03T21:11:20.176Z,4.67
2018-06-03T21:13:48.553Z,4.63
2018-06-03T21:16:16.955Z,5.00
2018-06-03T21:18:45.338Z,6.90
2018-06-03T21:21:13.719Z,4.60
2018-06-03T21:23:42.118Z,5.40
2018-06-03T21:26:10.490Z,5.47
2018-06-03T21:28:38.885Z,4.20
2018-06-03T21:31:07.264Z,4.80
2018-06-03T21:33:35.660Z,4.60
2018-06-03T21:36:03.791Z,6.13
2018-06-03T21:38:32.208Z,4.67
2018-06-03T21:41:00.656Z,4.17
2018-06-03T21:43:29.035Z,5.67
2018-06-03T21:45:57.419Z,4.20
2018-06-03T21:48:25.786Z,4.33
2018-06-03T21:50:54.218Z,6.50
2018-06-03T21:53:22.617Z,4.70
2018-06-03T21:55:51.026Z,4.63
2018-06-03T21:58:19.365Z,4.53
2018-06-03T22:00:47.720Z,5.90
2018-06-03T22:03:16.129Z,4.83
2018-06-03T22:05:44.512Z,4.73
2018-06-03T22:08:12.893Z,4.40
2018-06-03T22:10:41.299Z,4.67
2018-06-03T22:13:09.698Z,4.67
2018-06-03T22:15:38.081Z,4.83
2018-06-03T22:18:06.516Z,4.50
2018-06-03T22:20:34.996Z,4.30
2018-06-03T22:23:03.435Z,5.07
2018-06-03T22:25:31.806Z,6.10
2018-06-03T22:28:00.340Z,4.90
2018-06-03T22:30:28.705Z,5.47
2018-06-03T22:32:57.114Z,5.53
2018-06-03T22:35:25.568Z,5.33
2018-06-03T22:37:53.976Z,5.50
2018-06-03T22:40:22.313Z,5.80
2018-06-03T22:42:51.361Z,5.63
2018-06-03T22:45:19.743Z,5.70
2018-06-03T22:47:48.301Z,5.07
2018-06-03T22:50:16.636Z,5.17
2018-06-03T22:52:46.153Z,5.40
2018-06-03T22:55:14.509Z,5.47
2018-06-03T22:57:51.889Z,5.63
2018-06-03T23:00:30.909Z,6.20
2018-06-03T23:03:04.703Z,6.20
2018-06-03T23:05:33.089Z,6.07
2018-06-03T23:08:01.551Z,6.30
2018-06-03T23:10:30.791Z,5.80
2018-06-03T23:12:59.172Z,5.87
2018-06-03T23:15:29.392Z,5.70
2018-06-03T23:17:57.989Z,5.50
2018-06-03T23:20:26.497Z,6.10
2018-06-03T23:22:54.868Z,5.80
2018-06-03T23:25:23.841Z,7.20
2018-06-03T23:27:52.210Z,5.53
2018-06-03T23:30:20.598Z,5.87
2018-06-03T23:32:48.932Z,5.97
2018-06-03T23:35:17.351Z,5.50
2018-06-03T23:37:45.414Z,6.30
2018-06-03T23:40:13.824Z,5.73
2018-06-03T23:42:42.213Z,6.00
2018-06-03T23:45:10.583Z,6.53
2018-06-03T23:47:38.968Z,9.07
2018-06-03T23:50:07.346Z,6.67
2018-06-03T23:52:35.721Z,6.60
2018-06-03T23:55:04.115Z,6.20
2018-06-03T23:57:32.494Z,6.13
